Mérida, México

1:14 AM CDT en Agosto 30, 2014 (GMT -0500)
Pensiones | Change Station
CLOSE
Current Station
Estación meteorológica personal
Location: Merida, YUCATN
Altura: 30 ft
Estaciones meteorológicas cercanas

Alt 30 ft 20.99 °N, 89.65 °W | Updated 7 seconds ago

Mostly Cloudy
Muy nublado
79.9 ° F
Sensación térmica 84 ° F
N
6.0
Viento Variable Viento desde ENE
Gusts 6.0 mph

Hoy
Alta -- | Baja -- ° F
--% Posibilidad de precipitaciones
Ayer
Alta -- | Baja -- ° F
Precip. -- pul
6:41 AM 7:16 PM
Creciente, 19% visible
Presión 29.96 pul
Visibilidad 7.0 Millas
Nubes Muy nublado 25000 ft
Índice de calor 84 ° F
Punto de rocío 73 ° F
Humedad 80%
Precipitaciones 0.00 pul
Espesor de la nieve No disponible.
UV 0 de una escala de 12
Polen No disponible.
Calidad del aire No disponible.
Flu Activity No disponible.
METAR MMMD 300554Z 10011KT 7SM BKN250 25/22 A2994 RMK SLP143 52007 922 8/008

More Conditions Fewer Conditions

Presión 29.96 pul
Visibilidad 7.0 Millas
Nubes Muy nublado 25000 ft
Índice de calor 84 ° F
Punto de rocío 73 ° F
Humedad 80%
Precipitaciones 0.00 pul
Espesor de la nieve No disponible.
UV 0 de una escala de 12
Polen No disponible.
Calidad del aire No disponible.
Flu Activity No disponible.
METAR MMMD 300554Z 10011KT 7SM BKN250 25/22 A2994 RMK SLP143 52007 922 8/008

More Conditions Fewer Conditions

10-Day Weather Forecast

Almanac

Astronomía

Aug. 30, 2014 Salida Puesta
Hora real 6:41 AM CDT 7:16 PM CDT
Crepúsculo civil 6:19 AM CDT 7:38 PM CDT
Crepúsculo náutico 5:52 AM CDT 8:05 PM CDT
Crepúsculo astronómico 5:26 AM CDT 8:31 PM CDT
Luna 10:49 AM CDT 10:32 PM CDT
Horas de luz 13h 19m
Horas de luz
12h 34m
Tomorrow will be 1m 9s shorter.
Creciente, 19% of the Moon is Illuminated
Hoy
Creciente
Sep 2
Cuarto creciente
Sep 8
Luna llena
Sep 15
Cuarto menguante
Sep 24
Nueva

Extremos de ayer

Máximos del país Bajas del país

Community

WunderPhotos

Upload Photos

1,748,465 ¡fotos cargadas!

Nearby

Calidad del aire

Not available.

Grosos de nieve

Not available.

Actividad de terremotos

Ciudad Distance Mag. Tiempo y dato
No hay informes recientes de la actividad sísmica.
Magnitud mínima muestra es 2,5.

Temperaturas de aguas costeras

Lugar Temperatura
Sin partes meteorológicos de las estaciones

Estaciones meteorológicas cercanas